Time;durP1;ratioP1;P1;durP2;ratioP2;P2;SDS_P1;SDS_P2;PMS_P1;PMS_P2;Temp;Humidity;BMP_temperature;BMP_pressure;BME280_temperature;BME280_humidity;BME280_pressure;Samples;Min_cycle;Max_cycle;Signal;HPM_P1;HPM_P2
2023/06/05 00:02:13;;;;;;;;;;;;;;;;;;2226559;58;3058;-17
2023/06/05 00:04:43;;;;;;;;;;;;;;;;;;2223936;66;2024;-17
2023/06/05 00:07:14;;;;;;;;;;;;;;;;;;2225603;66;1858;-17
2023/06/05 00:09:44;;;;;;;;;;;;;;;;;;2226057;66;2649;-17
2023/06/05 00:12:14;;;;;;;;;;;;;;;;;;2226289;66;3500;-16
2023/06/05 00:14:45;;;;;;;;;;;;;;;;;;2226691;66;2645;-17
2023/06/05 00:17:16;;;;;;;;;;;;;;;;;;2226017;66;2243;-17
2023/06/05 00:19:46;;;;;;;;;;;;;;;;;;2225944;66;2002;-17
2023/06/05 00:22:17;;;;;;;;;;;;;;;;;;2222671;58;2502;-17
2023/06/05 00:24:47;;;;;;;;;;;;;;;;;;2226162;66;2204;-17
2023/06/05 00:27:17;;;;;;;;;;;;;;;;;;2222823;66;2791;-17
2023/06/05 00:29:48;;;;;;;;;;;;;;;;;;2226292;58;1928;-17
2023/06/05 00:32:18;;;;;;;;;;;;;;;;;;2226053;66;2857;-16
2023/06/05 00:34:50;;;;;;;;;;;;;;;;;;2226801;66;2697;-17
2023/06/05 00:37:20;;;;;;;;;;;;;;;;;;2225958;58;2371;-17
2023/06/05 00:39:50;;;;;;;;;;;;;;;;;;2220429;58;3064;-16
2023/06/05 00:42:20;;;;;;;;;;;;;;;;;;2225619;66;2531;-16
2023/06/05 00:44:51;;;;;;;;;;;;;;;;;;2226688;66;2652;-17
2023/06/05 00:47:21;;;;;;;;;;;;;;;;;;2223232;58;2127;-16
2023/06/05 00:49:52;;;;;;;;;;;;;;;;;;2223330;58;1991;-17
2023/06/05 00:52:26;;;;;;;;;;;;;;;;;;2226028;58;2721;-16
2023/06/05 00:54:57;;;;;;;;;;;;;;;;;;2224183;58;2661;-17
2023/06/05 00:57:28;;;;;;;;;;;;;;;;;;2225630;58;3127;-17
2023/06/05 00:59:58;;;;;;;;;;;;;;;;;;2226619;66;3201;-17
2023/06/05 01:02:29;;;;;;;;;;;;;;;;;;2226811;58;3069;-16
2023/06/05 01:04:59;;;;;;;;;;;;;;;;;;2223695;66;2912;-17
2023/06/05 01:07:32;;;;;;;;;;;;;;;;;;2226555;66;2542;-17
2023/06/05 01:10:06;;;;;;;;;;;;;;;;;;2225476;66;2528;-17
2023/06/05 01:12:40;;;;;;;;;;;;;;;;;;2220045;66;2304;-17
2023/06/05 01:15:10;;;;;;;;;;;;;;;;;;2226414;66;2740;-16
2023/06/05 01:17:47;;;;;;;;;;;;;;;;;;2226056;66;3125;-17
2023/06/05 01:20:19;;;;;;;;;;;;;;;;;;2225818;66;1872;-17
2023/06/05 01:22:52;;;;;;;;;;;;;;;;;;2226449;58;2400;-16
2023/06/05 01:25:22;;;;;;;;;;;;;;;;;;2225674;66;2516;-16
2023/06/05 01:27:55;;;;;;;;;;;;;;;;;;2226225;66;2066;-16
2023/06/05 01:30:32;;;;;;;;;;;;;;;;;;2225739;66;3276;-17
2023/06/05 01:33:07;;;;;;;;;;;;;;;;;;2226062;59;2094;-17
2023/06/05 01:35:37;;;;;;;;;;;;;;;;;;2226135;58;2206;-17
2023/06/05 01:38:11;;;;;;;;;;;;;;;;;;2225996;58;2946;-16
2023/06/05 01:40:44;;;;;;;;;;;;;;;;;;2225864;59;1789;-17
2023/06/05 01:43:15;;;;;;;;;;;;;;;;;;2225453;66;2071;-16
2023/06/05 01:45:46;;;;;;;;;;;;;;;;;;2223314;59;2103;-16
2023/06/05 01:48:16;;;;;;;;;;;;;;;;;;2225481;58;3394;-16
2023/06/05 01:50:47;;;;;;;;;;;;;;;;;;2225222;58;1989;-17
2023/06/05 01:53:18;;;;;;;;;;;;;;;;;;2225413;66;2425;-17
2023/06/05 01:55:48;;;;;;;;;;;;;;;;;;2226993;58;2218;-16
2023/06/05 01:58:19;;;;;;;;;;;;;;;;;;2226446;58;2840;-16
2023/06/05 02:00:50;;;;;;;;;;;;;;;;;;2227359;66;2055;-17
2023/06/05 02:03:20;;;;;;;;;;;;;;;;;;2226381;58;3304;-16
2023/06/05 02:05:54;;;;;;;;;;;;;;;;;;2223588;58;2931;-16
2023/06/05 02:08:24;;;;;;;;;;;;;;;;;;2226883;58;2227;-17
2023/06/05 02:10:55;;;;;;;;;;;;;;;;;;2227365;58;2373;-16
2023/06/05 02:13:27;;;;;;;;;;;;;;;;;;2227076;66;2559;-17
2023/06/05 02:15:59;;;;;;;;;;;;;;;;;;2226751;58;2745;-16
2023/06/05 02:18:30;;;;;;;;;;;;;;;;;;2223124;66;2096;-16
2023/06/05 02:21:00;;;;;;;;;;;;;;;;;;2226919;66;2403;-17
2023/06/05 02:23:31;;;;;;;;;;;;;;;;;;2220605;58;2766;-16
2023/06/05 02:26:02;;;;;;;;;;;;;;;;;;2226070;58;3331;-17
2023/06/05 02:28:32;;;;;;;;;;;;;;;;;;2225409;66;2795;-17
2023/06/05 02:31:05;;;;;;;;;;;;;;;;;;2226674;58;2652;-16
2023/06/05 02:33:35;;;;;;;;;;;;;;;;;;2226355;66;2222;-16
2023/06/05 02:36:06;;;;;;;;;;;;;;;;;;2227382;58;1997;-16
2023/06/05 02:38:40;;;;;;;;;;;;;;;;;;2222934;58;2066;-16
2023/06/05 02:41:10;;;;;;;;;;;;;;;;;;2220521;58;2457;-17
2023/06/05 02:43:41;;;;;;;;;;;;;;;;;;2227069;58;2164;-16
2023/06/05 02:46:11;;;;;;;;;;;;;;;;;;2223203;58;3043;-16
2023/06/05 02:48:41;;;;;;;;;;;;;;;;;;2223112;58;2524;-16
2023/06/05 02:51:12;;;;;;;;;;;;;;;;;;2223184;58;2079;-16
2023/06/05 02:53:42;;;;;;;;;;;;;;;;;;2226230;59;1939;-17
2023/06/05 02:56:13;;;;;;;;;;;;;;;;;;2222386;58;2529;-16
2023/06/05 02:58:45;;;;;;;;;;;;;;;;;;2227535;58;2784;-17
2023/06/05 03:01:16;;;;;;;;;;;;;;;;;;2225997;58;1958;-16
2023/06/05 03:03:48;;;;;;;;;;;;;;;;;;2227276;66;2488;-16
2023/06/05 03:06:18;;;;;;;;;;;;;;;;;;2226427;66;2550;-16
2023/06/05 03:08:49;;;;;;;;;;;;;;;;;;2226917;66;2651;-16
2023/06/05 03:11:20;;;;;;;;;;;;;;;;;;2225662;59;2291;-16
2023/06/05 03:13:51;;;;;;;;;;;;;;;;;;2223948;66;2343;-17
2023/06/05 03:16:23;;;;;;;;;;;;;;;;;;2224003;66;2487;-16
2023/06/05 03:18:54;;;;;;;;;;;;;;;;;;2223674;66;3090;-16
2023/06/05 03:21:25;;;;;;;;;;;;;;;;;;2226956;66;2849;-16
2023/06/05 03:23:55;;;;;;;;;;;;;;;;;;2224931;58;2325;-16
2023/06/05 03:26:25;;;;;;;;;;;;;;;;;;2223754;66;2687;-16
2023/06/05 03:28:56;;;;;;;;;;;;;;;;;;2224447;66;2056;-17
2023/06/05 03:31:26;;;;;;;;;;;;;;;;;;2226133;66;3009;-16
2023/06/05 03:33:58;;;;;;;;;;;;;;;;;;2225907;66;2217;-16
2023/06/05 03:36:29;;;;;;;;;;;;;;;;;;2225692;58;2113;-16
2023/06/05 03:39:00;;;;;;;;;;;;;;;;;;2226376;58;2642;-16
2023/06/05 03:41:30;;;;;;;;;;;;;;;;;;2223426;58;2656;-16
2023/06/05 03:44:01;;;;;;;;;;;;;;;;;;2227211;66;2007;-17
2023/06/05 03:46:31;;;;;;;;;;;;;;;;;;2227168;58;2785;-16
2023/06/05 03:49:08;;;;;;;;;;;;;;;;;;2227733;58;2497;-16
2023/06/05 03:51:39;;;;;;;;;;;;;;;;;;2223431;58;2110;-17
2023/06/05 03:54:10;;;;;;;;;;;;;;;;;;2223913;58;2704;-16
2023/06/05 03:56:43;;;;;;;;;;;;;;;;;;2222784;59;1628;-16
2023/06/05 03:59:23;;;;;;;;;;;;;;;;;;2225711;58;2371;-16
2023/06/05 04:01:54;;;;;;;;;;;;;;;;;;2226392;58;2648;-16
2023/06/05 04:04:25;;;;;;;;;;;;;;;;;;2223796;66;2216;-17
2023/06/05 04:06:55;;;;;;;;;;;;;;;;;;2226835;66;2097;-16
2023/06/05 04:09:25;;;;;;;;;;;;;;;;;;2224009;66;2805;-16
2023/06/05 04:11:56;;;;;;;;;;;;;;;;;;2226739;59;1658;-16
2023/06/05 04:14:26;;;;;;;;;;;;;;;;;;2226201;58;2059;-16
2023/06/05 04:16:56;;;;;;;;;;;;;;;;;;2226323;66;2378;-16
2023/06/05 04:19:26;;;;;;;;;;;;;;;;;;2223169;66;2158;-16
2023/06/05 04:21:57;;;;;;;;;;;;;;;;;;2226746;66;1720;-17
2023/06/05 04:24:29;;;;;;;;;;;;;;;;;;2223446;58;3172;-16
2023/06/05 04:27:02;;;;;;;;;;;;;;;;;;2226220;66;2982;-16
2023/06/05 04:29:34;;;;;;;;;;;;;;;;;;2223787;66;2869;-16
2023/06/05 04:32:04;;;;;;;;;;;;;;;;;;2226722;66;2486;-16
2023/06/05 04:34:35;;;;;;;;;;;;;;;;;;2225280;66;2116;-16
2023/06/05 04:37:06;;;;;;;;;;;;;;;;;;2222487;66;2102;-17
2023/06/05 04:39:36;;;;;;;;;;;;;;;;;;2225771;58;2346;-17
2023/06/05 04:42:07;;;;;;;;;;;;;;;;;;2226612;66;1762;-16
2023/06/05 04:44:38;;;;;;;;;;;;;;;;;;2223376;66;2799;-17
2023/06/05 04:47:08;;;;;;;;;;;;;;;;;;2226272;58;2411;-16
2023/06/05 04:49:39;;;;;;;;;;;;;;;;;;2226143;58;3252;-16
2023/06/05 04:52:11;;;;;;;;;;;;;;;;;;2225984;58;1775;-16
2023/06/05 04:54:41;;;;;;;;;;;;;;;;;;2227073;58;2903;-16
2023/06/05 04:57:11;;;;;;;;;;;;;;;;;;2220437;66;2798;-16
2023/06/05 04:59:45;;;;;;;;;;;;;;;;;;2227162;58;2246;-17
2023/06/05 05:02:15;;;;;;;;;;;;;;;;;;2225797;58;2024;-17
2023/06/05 05:04:46;;;;;;;;;;;;;;;;;;2224386;66;2979;-16
2023/06/05 05:07:17;;;;;;;;;;;;;;;;;;2225737;66;2497;-17
2023/06/05 05:09:48;;;;;;;;;;;;;;;;;;2224182;58;2027;-17
2023/06/05 05:12:18;;;;;;;;;;;;;;;;;;2223040;66;2451;-17
2023/06/05 05:14:49;;;;;;;;;;;;;;;;;;2226274;66;2265;-17
2023/06/05 05:17:20;;;;;;;;;;;;;;;;;;2226859;59;2057;-17
2023/06/05 05:19:50;;;;;;;;;;;;;;;;;;2226617;58;1961;-16
2023/06/05 05:22:21;;;;;;;;;;;;;;;;;;2226688;58;2764;-17
2023/06/05 05:24:51;;;;;;;;;;;;;;;;;;2224508;66;2910;-16
2023/06/05 05:27:21;;;;;;;;;;;;;;;;;;2223853;66;2935;-17
2023/06/05 05:29:52;;;;;;;;;;;;;;;;;;2226783;66;2593;-17
2023/06/05 05:32:25;;;;;;;;;;;;;;;;;;2225452;66;2638;-16
2023/06/05 05:34:56;;;;;;;;;;;;;;;;;;2225482;58;3220;-16
2023/06/05 05:37:26;;;;;;;;;;;;;;;;;;2224040;59;2968;-16
2023/06/05 05:39:57;;;;;;;;;;;;;;;;;;2226006;58;2065;-16
2023/06/05 05:42:27;;;;;;;;;;;;;;;;;;2225606;66;2024;-17
2023/06/05 05:44:57;;;;;;;;;;;;;;;;;;2226134;58;2901;-16
2023/06/05 05:47:28;;;;;;;;;;;;;;;;;;2222939;58;3289;-17
2023/06/05 05:49:58;;;;;;;;;;;;;;;;;;2225819;58;2825;-17
2023/06/05 05:52:28;;;;;;;;;;;;;;;;;;2222814;58;3903;-17
2023/06/05 05:54:59;;;;;;;;;;;;;;;;;;2226301;66;2247;-17
2023/06/05 05:57:32;;;;;;;;;;;;;;;;;;2226077;66;3070;-17
2023/06/05 06:00:05;;;;;;;;;;;;;;;;;;2224586;58;2988;-17
2023/06/05 06:02:36;;;;;;;;;;;;;;;;;;2225726;58;2162;-17
2023/06/05 06:05:07;;;;;;;;;;;;;;;;;;2226308;66;2031;-17
2023/06/05 06:07:40;;;;;;;;;;;;;;;;;;2226522;58;2268;-17
2023/06/05 06:10:11;;;;;;;;;;;;;;;;;;2226102;66;1994;-16
2023/06/05 06:12:42;;;;;;;;;;;;;;;;;;2222429;66;2243;-17
2023/06/05 06:15:12;;;;;;;;;;;;;;;;;;2223173;66;2479;-17
2023/06/05 06:17:42;;;;;;;;;;;;;;;;;;2225764;58;3142;-17
2023/06/05 06:20:14;;;;;;;;;;;;;;;;;;2225154;66;2062;-17
2023/06/05 06:22:44;;;;;;;;;;;;;;;;;;2225500;58;3490;-17
2023/06/05 06:25:15;;;;;;;;;;;;;;;;;;2225658;58;1724;-17
2023/06/05 06:27:48;;;;;;;;;;;;;;;;;;2223096;59;2795;-17
2023/06/05 06:30:19;;;;;;;;;;;;;;;;;;2225881;66;2052;-17
2023/06/05 06:32:50;;;;;;;;;;;;;;;;;;2223585;66;2042;-17
2023/06/05 06:35:20;;;;;;;;;;;;;;;;;;2225235;58;2423;-17
2023/06/05 06:37:52;;;;;;;;;;;;;;;;;;2226035;58;2261;-17
2023/06/05 06:40:23;;;;;;;;;;;;;;;;;;2221345;66;2110;-17
2023/06/05 06:42:53;;;;;;;;;;;;;;;;;;2223614;66;3024;-17
2023/06/05 06:45:24;;;;;;;;;;;;;;;;;;2226048;66;2065;-17
2023/06/05 06:47:54;;;;;;;;;;;;;;;;;;2223846;66;2782;-17
2023/06/05 06:50:24;;;;;;;;;;;;;;;;;;2226966;58;2691;-17
2023/06/05 06:52:55;;;;;;;;;;;;;;;;;;2226570;58;1989;-17
2023/06/05 06:55:28;;;;;;;;;;;;;;;;;;2226679;58;1719;-17
2023/06/05 06:58:03;;;;;;;;;;;;;;;;;;2219911;58;2131;-17
2023/06/05 07:00:33;;;;;;;;;;;;;;;;;;2226427;58;2850;-17
2023/06/05 07:03:04;;;;;;;;;;;;;;;;;;2226430;58;2488;-17
2023/06/05 07:05:34;;;;;;;;;;;;;;;;;;2227634;58;2614;-17
2023/06/05 07:08:08;;;;;;;;;;;;;;;;;;2226089;58;2767;-17
2023/06/05 07:10:39;;;;;;;;;;;;;;;;;;2224380;58;2609;-17
2023/06/05 07:13:09;;;;;;;;;;;;;;;;;;2225658;66;1951;-17
2023/06/05 07:15:39;;;;;;;;;;;;;;;;;;2226640;66;2504;-17
2023/06/05 07:18:10;;;;;;;;;;;;;;;;;;2225719;66;3142;-17
2023/06/05 07:20:40;;;;;;;;;;;;;;;;;;2222423;66;2996;-17
2023/06/05 07:25:45;;;;;;;;;;;;;;;;;;2220919;58;2718;-22
2023/06/05 07:28:15;;;;;;;;;;;;;;;;;;2223094;58;2099;-23
2023/06/05 07:30:46;;;;;;;;;;;;;;;;;;2224057;58;2106;-23
2023/06/05 07:33:16;;;;;;;;;;;;;;;;;;2219230;59;2210;-23
2023/06/05 07:35:48;;;;;;;;;;;;;;;;;;2219658;58;3071;-23
2023/06/05 07:38:18;;;;;;;;;;;;;;;;;;2219548;58;2063;-23
2023/06/05 07:40:48;;;;;;;;;;;;;;;;;;2219946;66;3647;-23
2023/06/05 07:43:19;;;;;;;;;;;;;;;;;;2219026;58;2385;-23
2023/06/05 07:45:49;;;;;;;;;;;;;;;;;;2220098;66;2247;-23
2023/06/05 07:48:20;;;;;;;;;;;;;;;;;;2218414;58;2110;-23
2023/06/05 07:50:50;;;;;;;;;;;;;;;;;;2219657;58;3412;-23
2023/06/05 07:53:22;;;;;;;;;;;;;;;;;;2218736;66;2542;-23
2023/06/05 07:55:52;;;;;;;;;;;;;;;;;;2217241;58;2072;-24
2023/06/05 07:58:22;;;;;;;;;;;;;;;;;;2215126;59;2375;-24
2023/06/05 08:00:53;;;;;;;;;;;;;;;;;;2218402;58;2855;-24
2023/06/05 08:03:23;;;;;;;;;;;;;;;;;;2217543;58;3218;-24
2023/06/05 08:05:53;;;;;;;;;;;;;;;;;;2216195;66;2271;-24
2023/06/05 08:08:24;;;;;;;;;;;;;;;;;;2219305;66;2717;-24
2023/06/05 08:10:55;;;;;;;;;;;;;;;;;;2219027;66;3475;-24
2023/06/05 08:13:29;;;;;;;;;;;;;;;;;;2219263;66;3240;-24
2023/06/05 08:16:00;;;;;;;;;;;;;;;;;;2217256;66;2889;-24
2023/06/05 08:18:30;;;;;;;;;;;;;;;;;;2219320;66;2523;-24
2023/06/05 08:21:00;;;;;;;;;;;;;;;;;;2219631;66;2240;-24
2023/06/05 08:23:30;;;;;;;;;;;;;;;;;;2218748;66;3143;-24
2023/06/05 08:26:01;;;;;;;;;;;;;;;;;;2219808;66;2819;-24
2023/06/05 08:28:34;;;;;;;;;;;;;;;;;;2219175;66;2109;-24
2023/06/05 08:31:05;;;;;;;;;;;;;;;;;;2219803;66;2540;-24
2023/06/05 08:33:36;;;;;;;;;;;;;;;;;;2217037;58;3000;-24
2023/06/05 08:36:07;;;;;;;;;;;;;;;;;;2219303;58;2048;-24
2023/06/05 08:38:37;;;;;;;;;;;;;;;;;;2219037;58;2964;-24
2023/06/05 08:41:10;;;;;;;;;;;;;;;;;;2219647;58;2049;-24
2023/06/05 08:43:44;;;;;;;;;;;;;;;;;;2219580;66;2242;-24
2023/06/05 08:46:15;;;;;;;;;;;;;;;;;;2219595;66;2019;-23
2023/06/05 08:48:46;;;;;;;;;;;;;;;;;;2219176;58;2893;-22
2023/06/05 08:51:17;;;;;;;;;;;;;;;;;;2218843;58;2085;-22
2023/06/05 08:54:12;;;;;;;;;;;;;;;;;;2216109;58;2713;-22
2023/06/05 08:56:43;;;;;;;;;;;;;;;;;;2219245;58;3096;-22
2023/06/05 08:59:14;;;;;;;;;;;;;;;;;;2218895;58;3030;-22
2023/06/05 09:01:46;;;;;;;;;;;;;;;;;;2216825;58;3263;-22
2023/06/05 09:04:17;;;;;;;;;;;;;;;;;;2216955;66;2886;-22
2023/06/05 09:06:47;;;;;;;;;;;;;;;;;;2219703;66;2923;-22
2023/06/05 09:09:17;;;;;;;;;;;;;;;;;;2218038;58;2332;-22
2023/06/05 09:12:00;;;;;;;;;;;;;;;;;;2214155;58;3411;-22
2023/06/05 09:14:31;;;;;;;;;;;;;;;;;;2217099;58;3064;-22
2023/06/05 09:17:02;;;;;;;;;;;;;;;;;;2215457;66;2250;-22
2023/06/05 09:19:37;;;;;;;;;;;;;;;;;;2214918;59;2602;-22
2023/06/05 09:22:08;;;;;;;;;;;;;;;;;;2218256;66;2264;-22
2023/06/05 09:24:40;;;;;;;;;;;;;;;;;;2219250;58;3222;-22
2023/06/05 09:27:11;;;;;;;;;;;;;;;;;;2219196;66;2005;-22
2023/06/05 09:29:43;;;;;;;;;;;;;;;;;;2219813;66;2516;-22
2023/06/05 09:32:13;;;;;;;;;;;;;;;;;;2218930;66;2632;-22
2023/06/05 09:34:45;;;;;;;;;;;;;;;;;;2219844;58;2071;-22
2023/06/05 09:37:16;;;;;;;;;;;;;;;;;;2218742;58;2805;-22
2023/06/05 09:39:49;;;;;;;;;;;;;;;;;;2219732;58;2867;-22
2023/06/05 09:42:30;;;;;;;;;;;;;;;;;;2217272;58;3027;-22
2023/06/05 09:45:01;;;;;;;;;;;;;;;;;;2218874;66;2670;-22
2023/06/05 09:47:32;;;;;;;;;;;;;;;;;;2219689;58;2822;-22
2023/06/05 09:50:03;;;;;;;;;;;;;;;;;;2219084;58;2018;-22
2023/06/05 09:52:36;;;;;;;;;;;;;;;;;;2219700;58;2677;-22
2023/06/05 09:55:06;;;;;;;;;;;;;;;;;;2219369;58;2468;-22
2023/06/05 09:57:37;;;;;;;;;;;;;;;;;;2218952;58;2704;-22
2023/06/05 10:00:08;;;;;;;;;;;;;;;;;;2220326;58;1943;-22
2023/06/05 10:02:38;;;;;;;;;;;;;;;;;;2216778;58;3488;-22
2023/06/05 10:05:11;;;;;;;;;;;;;;;;;;2219580;66;2557;-22
2023/06/05 10:07:41;;;;;;;;;;;;;;;;;;2217468;66;2309;-22
2023/06/05 10:10:12;;;;;;;;;;;;;;;;;;2218706;66;2616;-22
2023/06/05 10:12:42;;;;;;;;;;;;;;;;;;2214996;59;2920;-22
2023/06/05 10:15:13;;;;;;;;;;;;;;;;;;2219399;66;2077;-22
2023/06/05 10:17:43;;;;;;;;;;;;;;;;;;2220006;66;3157;-22
2023/06/05 10:20:14;;;;;;;;;;;;;;;;;;2218349;58;3035;-22
2023/06/05 10:22:44;;;;;;;;;;;;;;;;;;2217119;58;3011;-22
2023/06/05 10:25:18;;;;;;;;;;;;;;;;;;2218893;58;3119;-22
2023/06/05 10:28:02;;;;;;;;;;;;;;;;;;2216740;58;3437;-22
2023/06/05 10:30:51;;;;;;;;;;;;;;;;;;2219852;66;3486;-22
2023/06/05 10:33:31;;;;;;;;;;;;;;;;;;2215211;66;2533;-22
2023/06/05 10:36:09;;;;;;;;;;;;;;;;;;2220884;58;3009;-22
2023/06/05 10:38:40;;;;;;;;;;;;;;;;;;2220102;66;2808;-22
2023/06/05 10:41:11;;;;;;;;;;;;;;;;;;2220888;59;2937;-22
2023/06/05 10:43:48;;;;;;;;;;;;;;;;;;2223032;66;2848;-22
2023/06/05 10:46:28;;;;;;;;;;;;;;;;;;2222116;59;3284;-22
2023/06/05 10:49:05;;;;;;;;;;;;;;;;;;2219567;66;2936;-22
2023/06/05 10:51:39;;;;;;;;;;;;;;;;;;2219111;58;2898;-22
2023/06/05 10:54:10;;;;;;;;;;;;;;;;;;2217032;58;2563;-22
2023/06/05 10:57:06;;;;;;;;;;;;;;;;;;2219869;58;3013;-22
2023/06/05 10:59:38;;;;;;;;;;;;;;;;;;2216635;58;2206;-22
2023/06/05 11:02:20;;;;;;;;;;;;;;;;;;2220869;58;2181;-23
2023/06/05 11:04:53;;;;;;;;;;;;;;;;;;2220373;66;1969;-22
2023/06/05 11:07:24;;;;;;;;;;;;;;;;;;2219264;59;2267;-22
2023/06/05 11:10:04;;;;;;;;;;;;;;;;;;2219391;66;2679;-22
2023/06/05 11:12:35;;;;;;;;;;;;;;;;;;2219173;58;2371;-22
2023/06/05 11:15:15;;;;;;;;;;;;;;;;;;2221094;66;2520;-22
2023/06/05 11:17:46;;;;;;;;;;;;;;;;;;2216760;66;3069;-22
2023/06/05 11:20:22;;;;;;;;;;;;;;;;;;2219298;66;2618;-22
2023/06/05 11:22:52;;;;;;;;;;;;;;;;;;2221378;66;2487;-23
2023/06/05 11:25:26;;;;;;;;;;;;;;;;;;2220739;66;2511;-23
2023/06/05 11:27:58;;;;;;;;;;;;;;;;;;2219366;58;2447;-22
2023/06/05 11:30:33;;;;;;;;;;;;;;;;;;2220124;58;2683;-23
2023/06/05 11:33:23;;;;;;;;;;;;;;;;;;2217166;66;2175;-22
2023/06/05 11:35:59;;;;;;;;;;;;;;;;;;2220783;58;2917;-23
2023/06/05 11:38:29;;;;;;;;;;;;;;;;;;2219872;58;2277;-22
2023/06/05 11:41:05;;;;;;;;;;;;;;;;;;2220493;66;3381;-22
2023/06/05 11:43:41;;;;;;;;;;;;;;;;;;2220280;66;2783;-22
2023/06/05 11:46:11;;;;;;;;;;;;;;;;;;2219998;66;2731;-22
2023/06/05 11:48:45;;;;;;;;;;;;;;;;;;2219882;66;2495;-23
2023/06/05 11:51:15;;;;;;;;;;;;;;;;;;2219836;58;2706;-22
2023/06/05 11:53:47;;;;;;;;;;;;;;;;;;2220120;58;3106;-23
2023/06/05 11:56:17;;;;;;;;;;;;;;;;;;2219409;58;2812;-22
2023/06/05 11:58:48;;;;;;;;;;;;;;;;;;2215915;58;2699;-23
2023/06/05 12:01:31;;;;;;;;;;;;;;;;;;2220425;58;3124;-23
2023/06/05 12:04:05;;;;;;;;;;;;;;;;;;2216279;59;3492;-23
2023/06/05 12:06:42;;;;;;;;;;;;;;;;;;2219600;59;2526;-23
2023/06/05 12:09:14;;;;;;;;;;;;;;;;;;2217263;58;2991;-23
2023/06/05 12:11:45;;;;;;;;;;;;;;;;;;2219618;66;2373;-23
2023/06/05 12:14:44;;;;;;;;;;;;;;;;;;2217979;66;2633;-22
2023/06/05 12:17:14;;;;;;;;;;;;;;;;;;2215160;63;2050;-23
2023/06/05 12:19:52;;;;;;;;;;;;;;;;;;2216941;66;2113;-22
2023/06/05 12:22:22;;;;;;;;;;;;;;;;;;2219510;66;3200;-23
2023/06/05 12:24:53;;;;;;;;;;;;;;;;;;2220219;58;2569;-22
2023/06/05 12:27:29;;;;;;;;;;;;;;;;;;2219163;66;2073;-22
2023/06/05 12:29:59;;;;;;;;;;;;;;;;;;2218843;58;2258;-22
2023/06/05 12:32:30;;;;;;;;;;;;;;;;;;2219242;66;2535;-22
2023/06/05 12:35:00;;;;;;;;;;;;;;;;;;2215483;58;3282;-22
2023/06/05 12:37:37;;;;;;;;;;;;;;;;;;2214821;58;2722;-22
2023/06/05 12:40:10;;;;;;;;;;;;;;;;;;2218825;58;3138;-22
2023/06/05 12:42:43;;;;;;;;;;;;;;;;;;2219345;66;2941;-22
2023/06/05 12:45:13;;;;;;;;;;;;;;;;;;2216481;59;2595;-23
2023/06/05 12:47:47;;;;;;;;;;;;;;;;;;2216448;58;2379;-23
2023/06/05 12:50:19;;;;;;;;;;;;;;;;;;2218258;58;2829;-23
2023/06/05 12:52:49;;;;;;;;;;;;;;;;;;2218743;58;2791;-23
2023/06/05 12:55:19;;;;;;;;;;;;;;;;;;2217347;58;3018;-22
2023/06/05 12:57:50;;;;;;;;;;;;;;;;;;2216065;58;2767;-23
2023/06/05 13:00:21;;;;;;;;;;;;;;;;;;2217506;58;2275;-23
2023/06/05 13:02:51;;;;;;;;;;;;;;;;;;2218555;58;2080;-23
2023/06/05 13:05:21;;;;;;;;;;;;;;;;;;2217508;58;2611;-23
2023/06/05 13:07:54;;;;;;;;;;;;;;;;;;2217891;59;2595;-23
2023/06/05 13:10:24;;;;;;;;;;;;;;;;;;2218112;66;2823;-23
2023/06/05 13:12:54;;;;;;;;;;;;;;;;;;2219311;66;1856;-21
2023/06/05 13:15:25;;;;;;;;;;;;;;;;;;2218834;66;2451;-23
2023/06/05 13:17:55;;;;;;;;;;;;;;;;;;2215694;58;2948;-24
2023/06/05 13:20:25;;;;;;;;;;;;;;;;;;2218430;58;2597;-24
2023/06/05 13:22:56;;;;;;;;;;;;;;;;;;2218546;66;2104;-24
2023/06/05 13:25:29;;;;;;;;;;;;;;;;;;2217070;53;3514;-18
2023/06/05 13:27:59;;;;;;;;;;;;;;;;;;2214962;58;3024;-18
2023/06/05 13:30:29;;;;;;;;;;;;;;;;;;2211743;58;3452;-20
2023/06/05 13:33:00;;;;;;;;;;;;;;;;;;2216242;58;2537;-20
2023/06/05 13:35:34;;;;;;;;;;;;;;;;;;2217996;58;2418;-20
2023/06/05 13:38:04;;;;;;;;;;;;;;;;;;2217863;58;2486;-20
2023/06/05 13:40:34;;;;;;;;;;;;;;;;;;2217047;59;1708;-20
2023/06/05 13:43:04;;;;;;;;;;;;;;;;;;2218162;58;2174;-21
2023/06/05 13:45:35;;;;;;;;;;;;;;;;;;2217228;66;3234;-21
2023/06/05 13:48:05;;;;;;;;;;;;;;;;;;2211789;59;2985;-20
2023/06/05 13:50:35;;;;;;;;;;;;;;;;;;2213826;59;2821;-20
2023/06/05 13:53:06;;;;;;;;;;;;;;;;;;2218135;58;3314;-21
2023/06/05 13:55:36;;;;;;;;;;;;;;;;;;2218262;58;3286;-20
2023/06/05 13:58:07;;;;;;;;;;;;;;;;;;2218624;59;2373;-21
2023/06/05 14:00:37;;;;;;;;;;;;;;;;;;2217442;58;2439;-20
2023/06/05 14:03:07;;;;;;;;;;;;;;;;;;2218677;59;3607;-20
2023/06/05 14:05:37;;;;;;;;;;;;;;;;;;2213961;58;2650;-20
2023/06/05 14:08:07;;;;;;;;;;;;;;;;;;2218507;59;3053;-20
2023/06/05 14:10:38;;;;;;;;;;;;;;;;;;2217559;66;2074;-20
2023/06/05 14:13:08;;;;;;;;;;;;;;;;;;2214711;59;2624;-20
2023/06/05 14:15:38;;;;;;;;;;;;;;;;;;2218233;58;2928;-19
2023/06/05 14:18:09;;;;;;;;;;;;;;;;;;2214442;66;3054;-18
2023/06/05 14:20:39;;;;;;;;;;;;;;;;;;2217565;58;2608;-18
2023/06/05 14:23:10;;;;;;;;;;;;;;;;;;2217494;66;2935;-18
2023/06/05 14:25:41;;;;;;;;;;;;;;;;;;2217873;58;2075;-18
2023/06/05 14:28:11;;;;;;;;;;;;;;;;;;2217988;59;2867;-18
2023/06/05 14:30:41;;;;;;;;;;;;;;;;;;2214345;66;2073;-18
2023/06/05 14:33:12;;;;;;;;;;;;;;;;;;2218446;66;2048;-18
2023/06/05 14:35:42;;;;;;;;;;;;;;;;;;2218214;58;2699;-18
2023/06/05 14:38:12;;;;;;;;;;;;;;;;;;2218437;58;2967;-18
2023/06/05 14:40:43;;;;;;;;;;;;;;;;;;2218309;66;2967;-18
2023/06/05 14:43:13;;;;;;;;;;;;;;;;;;2211894;66;2251;-18
2023/06/05 14:45:43;;;;;;;;;;;;;;;;;;2218005;66;2198;-18
2023/06/05 14:48:14;;;;;;;;;;;;;;;;;;2218117;66;2098;-18
2023/06/05 14:50:46;;;;;;;;;;;;;;;;;;2217921;58;3485;-18
2023/06/05 14:53:16;;;;;;;;;;;;;;;;;;2218062;66;1744;-18
2023/06/05 14:55:46;;;;;;;;;;;;;;;;;;2218900;58;2518;-18
2023/06/05 14:58:17;;;;;;;;;;;;;;;;;;2218706;58;2783;-18
2023/06/05 15:00:48;;;;;;;;;;;;;;;;;;2218467;58;2865;-18
2023/06/05 15:03:18;;;;;;;;;;;;;;;;;;2217353;58;2780;-18
2023/06/05 15:05:49;;;;;;;;;;;;;;;;;;2218618;58;2884;-18
2023/06/05 15:08:20;;;;;;;;;;;;;;;;;;2216413;59;2897;-18
2023/06/05 15:10:50;;;;;;;;;;;;;;;;;;2214216;59;2849;-18
2023/06/05 15:13:21;;;;;;;;;;;;;;;;;;2213053;59;2204;-18
2023/06/05 15:15:52;;;;;;;;;;;;;;;;;;2218852;66;2201;-18
2023/06/05 15:18:22;;;;;;;;;;;;;;;;;;2217866;66;2396;-18
2023/06/05 15:20:52;;;;;;;;;;;;;;;;;;2218788;66;3408;-18
2023/06/05 15:23:22;;;;;;;;;;;;;;;;;;2218325;58;2960;-19
2023/06/05 15:25:53;;;;;;;;;;;;;;;;;;2218306;66;2115;-18
2023/06/05 15:28:23;;;;;;;;;;;;;;;;;;2214941;59;2722;-18
2023/06/05 15:30:53;;;;;;;;;;;;;;;;;;2213494;59;2860;-18
2023/06/05 15:33:24;;;;;;;;;;;;;;;;;;2217705;66;2773;-18
2023/06/05 15:35:54;;;;;;;;;;;;;;;;;;2217642;58;2708;-18
2023/06/05 15:38:24;;;;;;;;;;;;;;;;;;2217528;58;3316;-18
2023/06/05 15:40:54;;;;;;;;;;;;;;;;;;2214516;66;2533;-18
2023/06/05 15:43:25;;;;;;;;;;;;;;;;;;2217367;66;2936;-18
2023/06/05 15:45:55;;;;;;;;;;;;;;;;;;2217487;66;3049;-18
2023/06/05 15:48:25;;;;;;;;;;;;;;;;;;2217073;58;3012;-18
2023/06/05 15:50:57;;;;;;;;;;;;;;;;;;2213867;58;3173;-18
2023/06/05 15:53:27;;;;;;;;;;;;;;;;;;2217648;66;3077;-18
2023/06/05 15:56:01;;;;;;;;;;;;;;;;;;2216864;58;2827;-18
2023/06/05 15:58:34;;;;;;;;;;;;;;;;;;2216691;58;2173;-18
2023/06/05 16:01:05;;;;;;;;;;;;;;;;;;2217578;58;2286;-18
2023/06/05 16:03:35;;;;;;;;;;;;;;;;;;2217426;66;2222;-18
2023/06/05 16:06:05;;;;;;;;;;;;;;;;;;2214809;66;2784;-18
2023/06/05 16:08:39;;;;;;;;;;;;;;;;;;2212269;59;3215;-18
2023/06/05 16:11:09;;;;;;;;;;;;;;;;;;2212167;58;2997;-18
2023/06/05 16:13:40;;;;;;;;;;;;;;;;;;2217592;66;3017;-18
2023/06/05 16:16:10;;;;;;;;;;;;;;;;;;2214890;66;2937;-18
2023/06/05 16:18:41;;;;;;;;;;;;;;;;;;2212519;66;2077;-18
2023/06/05 16:21:11;;;;;;;;;;;;;;;;;;2217980;66;3024;-18
2023/06/05 16:23:41;;;;;;;;;;;;;;;;;;2212966;59;2158;-18
2023/06/05 16:26:12;;;;;;;;;;;;;;;;;;2214164;66;2543;-18
2023/06/05 16:28:43;;;;;;;;;;;;;;;;;;2218392;66;2987;-18
2023/06/05 16:31:14;;;;;;;;;;;;;;;;;;2218578;58;3001;-18
2023/06/05 16:33:45;;;;;;;;;;;;;;;;;;2215593;66;2288;-18
2023/06/05 16:36:15;;;;;;;;;;;;;;;;;;2214890;59;4114;-18
2023/06/05 16:38:45;;;;;;;;;;;;;;;;;;2218795;58;2829;-18
2023/06/05 16:41:15;;;;;;;;;;;;;;;;;;2217859;66;2653;-18
2023/06/05 16:43:46;;;;;;;;;;;;;;;;;;2218142;66;2010;-18
2023/06/05 16:46:16;;;;;;;;;;;;;;;;;;2217231;59;2321;-18
2023/06/05 16:48:46;;;;;;;;;;;;;;;;;;2217198;58;2910;-18
2023/06/05 16:51:17;;;;;;;;;;;;;;;;;;2217538;58;2473;-18
2023/06/05 16:53:47;;;;;;;;;;;;;;;;;;2218731;58;2503;-18
2023/06/05 16:56:20;;;;;;;;;;;;;;;;;;2218049;66;2769;-18
2023/06/05 16:58:52;;;;;;;;;;;;;;;;;;2218603;59;2743;-18
2023/06/05 17:01:25;;;;;;;;;;;;;;;;;;2217191;58;2138;-18
2023/06/05 17:03:55;;;;;;;;;;;;;;;;;;2217479;66;2279;-18
2023/06/05 17:06:25;;;;;;;;;;;;;;;;;;2217372;66;1915;-18
2023/06/05 17:08:57;;;;;;;;;;;;;;;;;;2214377;66;2960;-18
2023/06/05 17:11:28;;;;;;;;;;;;;;;;;;2217285;66;2102;-18
2023/06/05 17:13:58;;;;;;;;;;;;;;;;;;2217313;66;2069;-18
2023/06/05 17:16:28;;;;;;;;;;;;;;;;;;2216898;66;1677;-18
2023/06/05 17:18:58;;;;;;;;;;;;;;;;;;2217627;66;2195;-17
2023/06/05 17:21:30;;;;;;;;;;;;;;;;;;2214423;66;2796;-18
2023/06/05 17:24:00;;;;;;;;;;;;;;;;;;2217799;58;2918;-19
2023/06/05 17:26:30;;;;;;;;;;;;;;;;;;2216896;66;2055;-18
2023/06/05 17:29:00;;;;;;;;;;;;;;;;;;2218288;63;2953;-18
2023/06/05 17:31:34;;;;;;;;;;;;;;;;;;2217398;66;1990;-18
2023/06/05 17:34:04;;;;;;;;;;;;;;;;;;2218583;66;2628;-18
2023/06/05 17:36:34;;;;;;;;;;;;;;;;;;2212331;59;1665;-17